aviador You're here:

PATC Decoded Metar

TIN CITY in AK, USA
Report Time2017-12-16 09:55:00
UTC Time2017-12-16 10:48:36
Flight Rules ifr IFR
Wind040° at 23 kt
W.Decomp.*RWY 34: 15.7 kt HW 16.8 kt RCW
W.Rank040° ranks 3
Current wind is above 040° avg. (15.7)
Visibility9999 m
Phenomena:N/A
Clouds:Overcast 009 Hf
Ceiling900 ft
Temp-4°C (ISA -18)
Dew Point-4°C (100% RH)
AAT-14.8°C
QNH987 hPa
Density Alt-1,040 ft
Elevation272 ft
Report Wrong Elevation
Raw Report
PATC 160955Z AUTO 04023KT 10SM OVC009 M04/M04 A2915=

Extra information for PATC:More info

Metar Taf Metar & Taf Last 4 Metars F.Rules Stats Wind Profile Meteogram Temp Stats Airport Information Weather charts Add Link Nearby VenuesMetar ALERT Operation Metar Decoded Social comments

AIRNAV info for PATC